Time;durP1;ratioP1;P1;durP2;ratioP2;P2;SDS_P1;SDS_P2;PMS_P1;PMS_P2;Temp;Humidity;BMP_temperature;BMP_pressure;BME280_temperature;BME280_humidity;BME280_pressure;Samples;Min_cycle;Max_cycle;Signal;HPM_P1;HPM_P2
2021/12/10 00:00:30;;;;;;;16.63;7.15;;;-0.40;99.90;;;-0.88;100.00;96640.63;172549;28;987;-81
2021/12/10 00:01:06;;;;;;;15.16;7.03;;;-0.40;99.90;;;-0.90;100.00;96637.31;171085;28;1386;-81
2021/12/10 00:01:27;;;;;;;15.73;6.40;;;-0.40;99.90;;;-0.84;100.00;96643.03;171789;28;1481;-82
2021/12/10 00:01:48;;;;;;;17.02;6.80;;;-0.40;99.90;;;-0.90;100.00;96642.59;171131;28;1672;-82
2021/12/10 00:02:13;;;;;;;18.51;7.20;;;-0.30;99.90;;;-0.82;100.00;96649.00;172552;28;1371;-82
2021/12/10 00:02:19;;;;;;;18.02;6.95;;;-0.40;99.90;;;-0.93;100.00;96627.00;172905;28;1420;-82
2021/12/10 00:02:33;;;;;;;17.75;6.32;;;-0.30;99.90;;;-0.83;100.00;96642.06;170438;28;1506;-82
2021/12/10 00:02:45;;;;;;;17.91;6.86;;;-0.40;99.90;;;-0.82;100.00;96641.91;171851;28;1271;-82
2021/12/10 00:02:53;;;;;;;17.00;7.24;;;-0.30;99.90;;;-0.87;100.00;96638.84;171843;28;1270;-82
2021/12/10 00:03:03;;;;;;;15.52;7.03;;;-0.40;99.90;;;-0.84;100.00;96640.38;171118;28;1471;-82
2021/12/10 00:03:36;;;;;;;16.07;6.63;;;-0.30;99.90;;;-0.82;100.00;96644.53;171619;28;1745;-82
2021/12/10 00:03:50;;;;;;;16.24;6.66;;;-0.30;99.90;;;-0.97;100.00;96622.97;171571;28;1687;-82
2021/12/10 00:03:59;;;;;;;14.23;6.76;;;-0.30;99.90;;;-0.86;100.00;96640.50;170991;28;1697;-80
2021/12/10 00:04:09;;;;;;;15.10;6.53;;;-0.30;99.90;;;-0.86;100.00;96638.72;173055;28;1270;-81
2021/12/10 00:04:20;;;;;;;15.59;6.50;;;-0.40;99.90;;;-0.82;100.00;96644.53;172994;28;1573;-82
2021/12/10 00:04:33;;;;;;;16.47;6.82;;;-0.30;99.90;;;-0.89;100.00;96631.06;171136;28;1686;-82
2021/12/10 00:04:43;;;;;;;16.59;7.31;;;-0.30;99.90;;;-0.89;100.00;96631.06;171835;28;1371;-82
2021/12/10 00:04:49;;;;;;;15.47;6.97;;;-0.30;99.90;;;-0.98;100.00;96616.03;170490;28;1292;-82
2021/12/10 00:04:55;;;;;;;14.97;6.73;;;-0.30;99.90;;;-0.93;100.00;96624.38;171055;28;1498;-82
2021/12/10 00:05:07;;;;;;;15.07;6.43;;;-0.40;99.90;;;-0.90;100.00;96625.91;171140;28;1434;-82
2021/12/10 00:05:31;;;;;;;14.65;6.63;;;-0.40;99.90;;;-0.90;100.00;96632.03;171144;28;2832;-83
2021/12/10 00:05:57;;;;;;;15.80;6.65;;;-0.40;99.90;;;-0.86;100.00;96636.06;171719;28;1366;-82
2021/12/10 00:06:30;;;;;;;15.13;6.68;;;-0.30;99.90;;;-0.86;100.00;96633.44;171776;28;1560;-82
2021/12/10 00:06:45;;;;;;;16.99;7.41;;;-0.40;99.90;;;-0.79;100.00;96643.44;172451;28;1387;-82
2021/12/10 00:06:58;;;;;;;18.52;7.65;;;-0.40;99.90;;;-0.84;100.00;96629.81;170564;28;1485;-82
2021/12/10 00:07:28;;;;;;;16.41;7.24;;;-0.40;99.90;;;-0.79;100.00;96638.16;171063;28;1456;-82
2021/12/10 00:07:34;;;;;;;15.95;6.93;;;-0.40;99.90;;;-0.84;100.00;96635.09;171645;28;1391;-82
2021/12/10 00:07:42;;;;;;;16.48;6.68;;;-0.40;99.90;;;-0.86;100.00;96632.59;171804;28;1450;-82
2021/12/10 00:07:50;;;;;;;17.00;6.67;;;-0.40;99.90;;;-0.88;100.00;96631.88;172450;28;1133;-82
2021/12/10 00:07:57;;;;;;;18.02;7.22;;;-0.40;99.90;;;-0.80;100.00;96641.78;171856;28;1330;-82
2021/12/10 00:08:06;;;;;;;17.50;7.27;;;-0.40;99.90;;;-0.78;100.00;96647.78;172431;28;1447;-82
2021/12/10 00:08:14;;;;;;;17.13;7.10;;;-0.40;99.90;;;-0.86;100.00;96637.88;171780;28;1350;-83
2021/12/10 00:08:24;;;;;;;17.08;7.25;;;-0.40;99.90;;;-0.86;100.00;96627.31;171040;28;1414;-82
2021/12/10 00:08:35;;;;;;;17.51;7.22;;;-0.40;99.90;;;-0.92;100.00;96630.50;171993;28;1135;-82
2021/12/10 00:08:52;;;;;;;16.76;7.30;;;-0.40;99.90;;;-0.80;100.00;96647.06;171047;28;1406;-82
2021/12/10 00:09:17;;;;;;;16.81;7.38;;;-0.40;99.90;;;-0.80;100.00;96647.91;171050;28;1409;-82
2021/12/10 00:09:43;;;;;;;17.30;7.47;;;-0.40;99.90;;;-0.92;100.00;96627.84;171770;28;1613;-82
2021/12/10 00:09:58;;;;;;;17.77;7.21;;;-0.40;99.90;;;-0.79;100.00;96651.38;170402;28;1708;-81
2021/12/10 00:10:13;;;;;;;17.75;7.09;;;-0.40;99.90;;;-0.79;100.00;96652.22;171775;28;1368;-82
2021/12/10 00:10:30;;;;;;;16.56;7.28;;;-0.30;99.90;;;-0.84;100.00;96643.88;171746;28;1448;-82
2021/12/10 00:10:45;;;;;;;14.75;6.68;;;-0.30;99.90;;;-0.81;100.00;96648.03;171064;28;1506;-82
2021/12/10 00:10:56;;;;;;;14.88;6.39;;;-0.30;99.90;;;-0.81;100.00;96643.56;172514;28;1362;-82
2021/12/10 00:11:10;;;;;;;15.62;6.52;;;-0.40;99.90;;;-0.77;100.00;96652.91;171057;28;1538;-82
2021/12/10 00:12:00;;;;;;;15.74;6.53;;;-0.40;99.90;;;-0.80;100.00;96642.63;171052;28;1367;-82
2021/12/10 00:12:45;;;;;;;15.21;6.51;;;-0.30;99.90;;;-0.77;100.00;96652.06;170434;28;1473;-82
2021/12/10 00:12:52;;;;;;;16.31;6.81;;;-0.30;99.90;;;-0.89;100.00;96627.59;171253;28;1474;-82
2021/12/10 00:12:59;;;;;;;18.05;7.38;;;-0.30;99.90;;;-0.95;100.00;96618.41;169903;29;1681;-81
2021/12/10 00:13:06;;;;;;;18.83;7.40;;;-0.30;99.90;;;-0.87;100.00;96630.91;170398;29;1396;-81
2021/12/10 00:13:14;;;;;;;18.93;7.53;;;-0.40;99.90;;;-0.89;100.00;96628.44;171145;28;1466;-82
2021/12/10 00:13:22;;;;;;;18.85;7.27;;;-0.40;99.90;;;-0.80;100.00;96649.69;171034;28;1411;-81
2021/12/10 00:13:28;;;;;;;20.03;7.33;;;-0.30;99.90;;;-0.93;100.00;96620.88;171233;28;1418;-82
2021/12/10 00:13:35;;;;;;;19.64;7.52;;;-0.30;99.90;;;-0.90;100.00;96628.56;171061;28;1309;-82
2021/12/10 00:13:44;;;;;;;18.24;7.42;;;-0.30;99.90;;;-0.99;100.00;96619.66;172001;28;983;-82
2021/12/10 00:13:52;;;;;;;18.23;7.34;;;-0.30;99.90;;;-0.81;100.00;96645.38;171076;28;1430;-82
2021/12/10 00:13:58;;;;;;;20.70;7.50;;;-0.30;99.90;;;-0.92;100.00;96625.22;171074;28;1367;-82
2021/12/10 00:14:07;;;;;;;19.97;7.23;;;-0.30;99.90;;;-0.78;100.00;96645.13;171753;28;1106;-82
2021/12/10 00:14:13;;;;;;;19.63;6.96;;;-0.40;99.90;;;-0.84;100.00;96632.47;170731;28;1516;-82
2021/12/10 00:14:26;;;;;;;20.48;7.25;;;-0.40;99.90;;;-0.96;100.00;96622.00;171768;28;1517;-83
2021/12/10 00:14:34;;;;;;;18.24;6.91;;;-0.30;99.90;;;-0.82;100.00;96643.72;172190;28;1370;-82
2021/12/10 00:14:41;;;;;;;19.57;7.35;;;-0.30;99.90;;;-1.01;100.00;96602.28;171192;28;1618;-82
2021/12/10 00:14:48;;;;;;;19.32;7.68;;;-0.40;99.90;;;-0.88;100.00;96627.44;171816;28;1485;-82
2021/12/10 00:14:55;;;;;;;19.07;7.97;;;-0.30;99.90;;;-0.84;100.00;96635.09;171755;28;1300;-82
2021/12/10 00:15:02;;;;;;;18.93;8.12;;;-0.30;99.90;;;-0.82;100.00;96636.63;171079;28;1342;-82
2021/12/10 00:15:09;;;;;;;18.83;8.27;;;-0.30;99.90;;;-0.93;100.00;96619.09;171771;28;1493;-82
2021/12/10 00:15:18;;;;;;;19.30;7.93;;;-0.30;99.90;;;-0.84;100.00;96637.75;171793;28;1059;-82
2021/12/10 00:15:30;;;;;;;19.33;7.91;;;-0.30;99.90;;;-0.77;100.00;96646.78;171766;28;1069;-80
2021/12/10 00:15:39;;;;;;;18.04;8.07;;;-0.30;99.90;;;-0.85;100.00;96634.25;171709;28;1452;-82
2021/12/10 00:15:46;;;;;;;17.06;7.59;;;-0.30;99.90;;;-0.77;100.00;96650.25;171741;28;1376;-82
2021/12/10 00:15:55;;;;;;;17.10;7.44;;;-0.30;99.90;;;-0.91;100.00;96617.16;171879;28;931;-82
2021/12/10 00:16:03;;;;;;;19.80;7.23;;;-0.30;99.90;;;-1.01;100.00;96608.38;172092;28;1422;-82
2021/12/10 00:16:10;;;;;;;20.33;7.07;;;-0.30;99.90;;;-0.75;100.00;96648.31;171772;28;1417;-82
2021/12/10 00:16:20;;;;;;;20.20;7.20;;;-0.30;99.90;;;-0.83;100.00;96636.78;171851;28;1215;-82
2021/12/10 00:16:26;;;;;;;19.50;6.97;;;-0.30;99.90;;;-0.80;100.00;96633.84;171094;28;1577;-82
2021/12/10 00:16:35;;;;;;;18.45;6.82;;;-0.30;99.90;;;-0.80;100.00;96639.13;171608;28;1537;-81
2021/12/10 00:16:43;;;;;;;18.12;6.92;;;-0.30;99.90;;;-1.05;100.00;96604.34;171258;28;975;-82
2021/12/10 00:16:50;;;;;;;17.59;6.91;;;-0.30;99.90;;;-0.81;100.00;96637.47;171145;28;1334;-81
2021/12/10 00:17:00;;;;;;;17.03;7.10;;;-0.30;99.90;;;-1.08;100.00;96591.41;170337;28;1480;-82
2021/12/10 00:17:11;;;;;;;17.48;7.47;;;-0.30;99.90;;;-0.79;100.00;96636.34;171777;28;1620;-82
2021/12/10 00:17:18;;;;;;;18.18;7.76;;;-0.30;99.90;;;-0.73;100.00;96650.84;172464;28;1315;-81
2021/12/10 00:17:25;;;;;;;19.02;7.80;;;-0.30;99.90;;;-0.74;100.00;96646.50;171722;28;1508;-82
2021/12/10 00:17:31;;;;;;;18.48;7.60;;;-0.30;99.90;;;-0.74;100.00;96644.72;172415;28;1375;-81
2021/12/10 00:17:38;;;;;;;18.27;7.27;;;-0.30;99.90;;;-0.77;100.00;96642.31;172284;28;1426;-81
2021/12/10 00:17:44;;;;;;;18.80;7.22;;;-0.30;99.90;;;-0.89;100.00;96615.22;171146;28;1580;-82
2021/12/10 00:17:53;;;;;;;18.14;7.08;;;-0.30;99.90;;;-0.76;100.00;96643.16;171182;28;1030;-82
2021/12/10 00:18:05;;;;;;;18.70;6.93;;;-0.30;99.90;;;-0.80;100.00;96636.50;172053;28;1500;-82
2021/12/10 00:18:18;;;;;;;17.60;7.07;;;-0.30;99.90;;;-0.77;100.00;96642.31;171019;28;1426;-82
2021/12/10 00:18:32;;;;;;;18.64;7.29;;;-0.30;99.90;;;-0.72;100.00;96644.53;171171;28;1247;-82
2021/12/10 00:18:42;;;;;;;20.98;7.70;;;-0.30;99.90;;;-0.85;100.00;96626.34;171007;28;1628;-82
2021/12/10 00:18:55;;;;;;;22.30;7.53;;;-0.30;99.90;;;-0.74;100.00;96657.91;172108;28;1525;-82
2021/12/10 00:20:01;;;;;;;15.34;7.13;;;-0.30;99.90;;;-0.73;100.00;96651.66;170104;29;1452;-81
2021/12/10 00:20:02;;;;;;;18.88;7.61;;;-0.30;99.90;;;-0.79;100.00;96638.16;170561;29;1215;-82
2021/12/10 00:20:10;;;;;;;16.30;7.63;;;-0.30;99.90;;;-0.75;100.00;96652.75;170280;29;1273;-82
2021/12/10 00:20:19;;;;;;;16.06;7.86;;;-0.30;99.90;;;-0.72;100.00;96650.66;169786;28;1463;-82
2021/12/10 00:20:29;;;;;;;14.71;7.14;;;-0.30;99.90;;;-0.84;100.00;96632.47;172418;28;1327;-82
2021/12/10 00:20:40;;;;;;;15.30;7.19;;;-0.30;99.90;;;-0.72;100.00;96652.47;171692;28;1437;-81
2021/12/10 00:20:49;;;;;;;15.39;7.13;;;-0.30;99.90;;;-0.76;100.00;96640.53;173276;28;1319;-82
2021/12/10 00:20:58;;;;;;;14.87;7.21;;;-0.30;99.90;;;-0.76;100.00;96646.63;173213;28;1189;-82
2021/12/10 00:21:05;;;;;;;13.87;7.01;;;-0.30;99.90;;;-0.75;100.00;96644.84;173101;28;1467;-82
2021/12/10 00:21:12;;;;;;;13.50;6.82;;;-0.30;99.90;;;-0.78;100.00;96642.47;173131;28;1475;-83
2021/12/10 00:21:21;;;;;;;15.20;6.65;;;-0.30;99.90;;;-0.71;100.00;96640.94;172442;28;1419;-82
2021/12/10 00:21:29;;;;;;;17.27;7.20;;;-0.30;99.90;;;-0.90;100.00;96618.00;173189;28;1277;-81
2021/12/10 00:21:35;;;;;;;17.78;7.35;;;-0.30;99.90;;;-0.87;100.00;96621.19;174004;28;941;-82
2021/12/10 00:21:43;;;;;;;17.72;7.26;;;-0.20;99.90;;;-0.73;100.00;96648.19;173536;28;1475;-82
2021/12/10 00:21:51;;;;;;;16.47;7.40;;;-0.30;99.90;;;-0.75;100.00;96639.56;173240;28;1479;-82
2021/12/10 00:22:06;;;;;;;15.98;7.18;;;-0.30;99.90;;;-0.82;100.00;96631.34;173284;28;1681;-82
2021/12/10 00:22:38;;;;;;;15.99;7.16;;;-0.30;99.90;;;-0.77;100.00;96638.84;173711;28;1444;-82
2021/12/10 00:22:55;;;;;;;17.83;7.51;;;-0.30;99.90;;;-0.79;100.00;96636.34;174423;28;1721;-81
2021/12/10 00:23:14;;;;;;;19.15;7.26;;;-0.30;99.90;;;-0.76;100.00;96638.72;173671;28;2856;-82
2021/12/10 00:23:20;;;;;;;18.30;7.35;;;-0.30;99.90;;;-0.76;100.00;96638.72;173192;28;1400;-82
2021/12/10 00:23:30;;;;;;;18.67;6.87;;;-0.30;99.90;;;-0.77;100.00;96637.03;172926;28;1081;-82
2021/12/10 00:23:37;;;;;;;17.16;6.61;;;-0.30;99.90;;;-0.73;100.00;96645.53;174423;28;1365;-82
2021/12/10 00:23:46;;;;;;;15.85;6.57;;;-0.30;99.90;;;-0.81;100.00;96632.16;173424;28;1405;-81
2021/12/10 00:23:56;;;;;;;14.10;7.13;;;-0.30;99.90;;;-0.72;100.00;96650.66;173970;28;913;-82
2021/12/10 00:24:03;;;;;;;14.33;7.50;;;-0.30;99.90;;;-0.73;100.00;96641.09;173172;28;1354;-82
2021/12/10 00:24:10;;;;;;;16.10;7.83;;;-0.30;99.90;;;-0.81;100.00;96629.53;173768;28;1386;-82
2021/12/10 00:24:16;;;;;;;16.72;7.78;;;-0.30;99.90;;;-0.72;100.00;96648.03;173647;28;1583;-82
2021/12/10 00:24:27;;;;;;;17.30;7.76;;;-0.20;99.90;;;-0.86;100.00;96622.84;172474;28;1371;-82
2021/12/10 00:24:34;;;;;;;17.07;7.34;;;-0.30;99.90;;;-0.84;100.00;96625.38;173929;28;1499;-82
2021/12/10 00:24:43;;;;;;;15.77;7.32;;;-0.30;99.90;;;-0.81;100.00;96632.16;173576;28;1662;-81
2021/12/10 00:24:53;;;;;;;15.86;7.79;;;-0.30;99.90;;;-0.83;100.00;96627.03;173743;28;1473;-81
2021/12/10 00:24:59;;;;;;;16.17;7.65;;;-0.30;99.90;;;-0.76;100.00;96637.88;172722;28;2663;-82
2021/12/10 00:25:20;;;;;;;17.07;7.70;;;-0.30;99.90;;;-0.80;100.00;96631.22;173893;28;1666;-82
2021/12/10 00:25:37;;;;;;;17.77;7.63;;;-0.20;99.90;;;-0.76;100.00;96633.44;172099;28;1377;-82
2021/12/10 00:25:53;;;;;;;17.86;7.46;;;-0.30;99.90;;;-0.90;100.00;96618.84;173615;28;1394;-82
2021/12/10 00:26:02;;;;;;;17.34;7.54;;;-0.30;99.90;;;-0.86;100.00;96625.50;173647;28;1615;-82
2021/12/10 00:26:08;;;;;;;17.65;7.56;;;-0.30;99.90;;;-0.76;100.00;96638.72;173204;28;1511;-82
2021/12/10 00:26:14;;;;;;;17.48;7.50;;;-0.30;99.90;;;-0.78;100.00;96638.03;171853;28;1236;-82
2021/12/10 00:26:22;;;;;;;17.58;7.28;;;-0.30;99.90;;;-0.77;100.00;96636.19;174522;28;1419;-82
2021/12/10 00:26:28;;;;;;;17.48;7.20;;;-0.30;99.90;;;-0.79;100.00;96632.88;175207;28;1336;-82
2021/12/10 00:26:34;;;;;;;16.17;6.97;;;-0.30;99.90;;;-0.84;100.00;96625.38;174636;28;855;-82
2021/12/10 00:26:40;;;;;;;15.80;6.95;;;-0.20;99.90;;;-0.75;100.00;96639.56;172407;28;1241;-82
2021/12/10 00:26:47;;;;;;;16.63;7.35;;;-0.30;99.90;;;-1.00;100.00;96593.38;172689;28;1447;-82
2021/12/10 00:26:54;;;;;;;17.40;8.00;;;-0.30;99.90;;;-0.74;100.00;96638.59;173829;28;1366;-82
2021/12/10 00:27:07;;;;;;;18.80;8.30;;;-0.20;99.90;;;-0.77;100.00;96633.56;173996;28;827;-82
2021/12/10 00:27:14;;;;;;;19.64;8.19;;;-0.30;99.90;;;-0.75;100.00;96637.75;172361;28;1379;-82
2021/12/10 00:27:30;;;;;;;18.20;7.13;;;-0.30;99.90;;;-0.73;100.00;96637.63;173774;28;1416;-82
2021/12/10 00:27:36;;;;;;;18.74;7.31;;;-0.30;99.90;;;-0.95;100.00;96607.84;173158;28;1381;-82
2021/12/10 00:27:42;;;;;;;19.10;7.67;;;-0.30;99.90;;;-0.73;100.00;96648.19;172390;28;1453;-82
2021/12/10 00:27:54;;;;;;;20.38;8.07;;;-0.30;99.90;;;-0.76;100.00;96640.53;173882;28;1345;-82
2021/12/10 00:28:02;;;;;;;20.00;8.13;;;-0.20;99.90;;;-0.79;100.00;96640.81;173896;28;1383;-82
2021/12/10 00:28:29;;;;;;;19.57;8.23;;;-0.30;99.90;;;-0.91;100.00;96618.97;173120;28;1648;-81
2021/12/10 00:28:39;;;;;;;16.64;7.80;;;-0.20;99.90;;;-0.75;100.00;96650.13;173182;28;1732;-82
2021/12/10 00:28:45;;;;;;;16.35;7.90;;;-0.30;99.90;;;-0.77;100.00;96641.47;173539;28;1623;-82
2021/12/10 00:29:00;;;;;;;16.70;7.63;;;-0.20;99.90;;;-0.82;100.00;96636.63;173145;28;1433;-82
2021/12/10 00:29:08;;;;;;;15.76;7.22;;;-0.30;99.90;;;-0.84;100.00;96635.94;173151;28;1401;-82
2021/12/10 00:29:15;;;;;;;16.37;7.07;;;-0.30;99.90;;;-0.77;100.00;96641.47;173970;28;1469;-82
2021/12/10 00:29:22;;;;;;;16.32;7.10;;;-0.30;99.90;;;-0.79;100.00;96643.44;173870;28;1586;-82
2021/12/10 00:29:28;;;;;;;16.80;7.37;;;-0.30;99.90;;;-0.89;100.00;96628.44;174682;28;1603;-82
2021/12/10 00:29:40;;;;;;;17.70;7.77;;;-0.30;99.90;;;-0.81;100.00;96646.22;174569;28;1411;-82
2021/12/10 00:29:49;;;;;;;18.94;7.55;;;-0.30;99.90;;;-0.86;100.00;96630.78;174541;28;1445;-82
2021/12/10 00:30:07;;;;;;;20.21;7.93;;;-0.30;99.90;;;-0.83;100.00;96639.41;173877;28;1516;-82
2021/12/10 00:30:33;;;;;;;20.20;7.51;;;-0.30;99.90;;;-0.78;100.00;96643.31;172936;28;1763;-82
2021/12/10 00:31:15;;;;;;;19.70;7.60;;;-0.30;99.90;;;-0.81;100.00;96642.75;173178;28;1383;-82
2021/12/10 00:31:48;;;;;;;20.00;7.97;;;-0.30;99.90;;;-0.80;100.00;96642.63;173861;28;1448;-82
2021/12/10 00:32:05;;;;;;;16.64;7.63;;;-0.30;99.90;;;-0.86;100.00;96633.44;173775;28;1378;-81
2021/12/10 00:32:23;;;;;;;14.46;6.70;;;-0.30;99.90;;;-0.83;100.00;96642.91;174297;28;1348;-82
2021/12/10 00:32:34;;;;;;;16.45;6.99;;;-0.30;99.90;;;-0.82;100.00;96639.25;173819;28;1233;-82
2021/12/10 00:33:02;;;;;;;17.26;7.61;;;-0.30;99.90;;;-0.79;100.00;96648.72;174789;28;1452;-82
2021/12/10 00:33:20;;;;;;;16.94;7.57;;;-0.30;99.90;;;-0.78;100.00;96651.25;174568;28;1391;-82
2021/12/10 00:33:28;;;;;;;15.60;6.88;;;-0.30;99.90;;;-0.83;100.00;96634.13;173886;28;1248;-82
2021/12/10 00:33:49;;;;;;;15.28;6.82;;;-0.30;99.90;;;-0.77;100.00;96644.97;172580;28;955;-82
2021/12/10 00:34:16;;;;;;;14.46;6.76;;;-0.30;99.90;;;-0.88;100.00;96632.72;172954;28;1548;-82
2021/12/10 00:34:36;;;;;;;15.31;6.86;;;-0.30;99.90;;;-0.75;100.00;96639.56;172429;28;1373;-82
2021/12/10 00:34:50;;;;;;;16.98;7.13;;;-0.30;99.90;;;-0.80;100.00;96641.78;172533;28;1585;-82
2021/12/10 00:35:02;;;;;;;19.30;7.35;;;-0.30;99.90;;;-0.87;100.00;96625.63;172879;28;1443;-81
2021/12/10 00:35:22;;;;;;;20.51;7.31;;;-0.30;99.90;;;-0.85;100.00;96628.97;172543;28;1228;-81
2021/12/10 00:35:32;;;;;;;17.91;6.61;;;-0.30;99.90;;;-0.82;100.00;96631.34;173704;28;1431;-82
2021/12/10 00:35:41;;;;;;;14.86;6.13;;;-0.30;99.90;;;-0.87;100.00;96623.00;174527;28;1441;-82
2021/12/10 00:35:48;;;;;;;14.87;6.37;;;-0.30;99.90;;;-0.93;100.00;96613.81;173297;28;962;-82
2021/12/10 00:35:56;;;;;;;13.80;6.40;;;-0.30;99.90;;;-0.79;100.00;96631.06;173477;28;1361;-82
2021/12/10 00:36:02;;;;;;;16.53;6.60;;;-0.30;99.90;;;-0.74;100.00;96635.94;173889;28;1279;-82
2021/12/10 00:36:08;;;;;;;16.73;6.60;;;-0.30;99.90;;;-0.80;100.00;96632.03;172478;28;1961;-82
2021/12/10 00:36:14;;;;;;;16.33;6.60;;;-0.30;99.90;;;-0.81;100.00;96627.72;173739;28;1375;-82
2021/12/10 00:36:22;;;;;;;15.80;6.33;;;-0.30;99.90;;;-0.83;100.00;96620.94;173857;28;1372;-82
2021/12/10 00:36:31;;;;;;;14.45;5.97;;;-0.30;99.90;;;-0.78;100.00;96640.69;173097;28;1324;-82
2021/12/10 00:36:39;;;;;;;13.47;5.95;;;-0.30;99.90;;;-0.87;100.00;96618.53;173158;28;1489;-82
2021/12/10 00:36:46;;;;;;;14.21;5.96;;;-0.30;99.90;;;-0.99;100.00;96600.34;173712;28;1199;-82
2021/12/10 00:36:58;;;;;;;14.76;6.24;;;-0.30;99.90;;;-0.83;100.00;96628.84;173160;28;1472;-82
2021/12/10 00:37:11;;;;;;;14.65;6.35;;;-0.30;99.90;;;-0.83;100.00;96626.22;173203;28;1461;-81
2021/12/10 00:37:23;;;;;;;13.55;6.36;;;-0.30;99.90;;;-0.74;100.00;96642.06;174489;28;3192;-82
2021/12/10 00:37:29;;;;;;;15.50;6.44;;;-0.30;99.90;;;-0.90;100.00;96621.47;172545;28;1352;-82
2021/12/10 00:37:36;;;;;;;17.85;6.90;;;-0.30;99.90;;;-0.84;100.00;96629.81;173226;28;910;-81
2021/12/10 00:37:42;;;;;;;18.50;7.03;;;-0.30;99.90;;;-0.82;100.00;96636.63;172663;28;1350;-82
2021/12/10 00:37:49;;;;;;;18.40;7.07;;;-0.30;99.90;;;-0.90;100.00;96610.91;173954;28;1290;-82
2021/12/10 00:37:55;;;;;;;16.43;6.77;;;-0.30;99.90;;;-1.02;100.00;96598.78;173500;28;1454;-82
2021/12/10 00:38:01;;;;;;;15.27;6.80;;;-0.30;99.90;;;-0.93;100.00;96611.16;173972;28;1049;-82
2021/12/10 00:38:09;;;;;;;15.30;6.43;;;-0.30;99.90;;;-0.75;100.00;96639.56;173522;28;1449;-82
2021/12/10 00:38:16;;;;;;;15.10;6.30;;;-0.30;99.90;;;-0.74;100.00;96642.06;173129;28;1197;-82
2021/12/10 00:38:24;;;;;;;15.90;6.80;;;-0.30;99.90;;;-0.78;100.00;96639.84;173272;28;1069;-82
2021/12/10 00:38:30;;;;;;;17.40;6.80;;;-0.30;99.90;;;-0.87;100.00;96630.91;171758;28;1258;-82
2021/12/10 00:38:36;;;;;;;16.85;7.00;;;-0.30;99.90;;;-0.81;100.00;96626.88;171827;28;1501;-82
2021/12/10 00:38:43;;;;;;;15.60;7.07;;;-0.30;99.90;;;-0.86;100.00;96619.38;172452;28;1308;-82
2021/12/10 00:38:51;;;;;;;15.20;7.18;;;-0.30;99.90;;;-0.91;100.00;96614.50;172530;28;1508;-82
2021/12/10 00:38:59;;;;;;;15.43;7.10;;;-0.30;99.90;;;-0.83;100.00;96628.84;172858;28;1447;-81
2021/12/10 00:39:27;;;;;;;15.63;7.10;;;-0.30;99.90;;;-0.75;100.00;96640.38;172417;28;1555;-81
2021/12/10 00:39:46;;;;;;;15.84;7.05;;;-0.30;99.90;;;-0.77;100.00;96631.75;172427;28;1431;-82
2021/12/10 00:39:58;;;;;;;14.30;6.56;;;-0.30;99.90;;;-1.02;100.00;96582.09;173832;28;1600;-82
2021/12/10 00:40:10;;;;;;;15.29;6.36;;;-0.30;99.90;;;-0.77;100.00;96626.47;173247;28;1282;-81
2021/12/10 00:40:20;;;;;;;15.90;6.30;;;-0.30;99.90;;;-0.80;100.00;96629.41;173223;28;1275;-82
2021/12/10 00:40:27;;;;;;;15.51;6.18;;;-0.30;99.90;;;-0.84;100.00;96621.91;173571;28;1616;-82
2021/12/10 00:40:33;;;;;;;14.57;6.07;;;-0.30;99.90;;;-0.75;100.00;96635.09;173197;28;1323;-82
2021/12/10 00:40:40;;;;;;;14.43;6.00;;;-0.30;99.90;;;-0.80;100.00;96621.47;173173;28;1430;-82
2021/12/10 00:40:47;;;;;;;13.25;5.92;;;-0.30;99.90;;;-0.74;100.00;96630.66;174558;28;967;-82
2021/12/10 00:40:54;;;;;;;12.80;6.03;;;-0.30;99.90;;;-0.78;100.00;96619.53;173193;28;1367;-82
2021/12/10 00:41:01;;;;;;;12.68;5.86;;;-0.30;99.90;;;-0.78;100.00;96618.72;173572;28;1456;-82
2021/12/10 00:41:08;;;;;;;12.70;6.10;;;-0.30;99.90;;;-0.74;100.00;96630.66;173473;28;1560;-82
2021/12/10 00:41:15;;;;;;;12.26;5.96;;;-0.30;99.90;;;-0.90;100.00;96604.78;172817;28;1330;-82
2021/12/10 00:41:24;;;;;;;12.70;5.87;;;-0.30;99.90;;;-0.73;100.00;96629.69;173937;28;1472;-81
2021/12/10 00:41:31;;;;;;;13.73;6.40;;;-0.20;99.90;;;-0.73;100.00;96625.25;174395;28;1412;-82
2021/12/10 00:41:38;;;;;;;14.83;6.43;;;-0.30;99.90;;;-0.75;100.00;96619.25;173854;28;1183;-82
2021/12/10 00:41:45;;;;;;;15.07;6.57;;;-0.20;99.90;;;-0.73;100.00;96630.53;172234;28;1239;-82
2021/12/10 00:41:53;;;;;;;14.34;6.56;;;-0.20;99.90;;;-0.77;100.00;96625.63;173101;28;1373;-82
2021/12/10 00:42:05;;;;;;;13.71;6.17;;;-0.30;99.90;;;-0.76;100.00;96622.03;172912;28;1540;-82
2021/12/10 00:42:21;;;;;;;13.86;6.31;;;-0.30;99.90;;;-0.80;100.00;96623.28;172916;28;1397;-81
2021/12/10 00:42:34;;;;;;;14.82;6.39;;;-0.20;99.90;;;-0.71;100.00;96630.38;172642;28;1252;-82
2021/12/10 00:42:40;;;;;;;13.93;6.60;;;-0.30;99.90;;;-0.68;100.00;96635.41;172342;28;1383;-82
2021/12/10 00:42:46;;;;;;;12.63;6.60;;;-0.20;99.90;;;-0.68;100.00;96635.41;173888;28;1440;-82
2021/12/10 00:42:54;;;;;;;12.88;6.66;;;-0.30;99.90;;;-0.97;100.00;96596.56;173317;28;1081;-82
2021/12/10 00:43:01;;;;;;;13.90;6.67;;;-0.30;99.90;;;-0.70;100.00;96634.69;172278;28;1250;-82
2021/12/10 00:43:07;;;;;;;15.87;6.83;;;-0.30;99.90;;;-0.82;100.00;96609.34;173185;28;1259;-82
2021/12/10 00:43:13;;;;;;;16.15;6.80;;;-0.30;99.90;;;-0.71;100.00;96627.72;172333;28;1376;-82
2021/12/10 00:43:20;;;;;;;14.88;6.58;;;-0.20;99.90;;;-0.70;100.00;96632.88;172577;28;1121;-82
2021/12/10 00:43:26;;;;;;;14.90;6.63;;;-0.20;99.90;;;-0.79;100.00;96619.66;172358;28;1302;-82
2021/12/10 00:43:34;;;;;;;14.36;6.46;;;-0.30;99.90;;;-0.66;100.00;96631.63;173217;28;1319;-82
2021/12/10 00:43:41;;;;;;;14.43;6.13;;;-0.20;99.90;;;-0.96;100.00;96590.31;172550;28;949;-82
2021/12/10 00:43:47;;;;;;;15.00;6.30;;;-0.20;99.90;;;-0.74;100.00;96617.44;173303;28;958;-82
2021/12/10 00:43:54;;;;;;;14.83;6.33;;;-0.20;99.90;;;-0.66;100.00;96634.25;173163;28;1358;-81
2021/12/10 00:44:00;;;;;;;14.90;6.10;;;-0.20;99.90;;;-0.72;100.00;96626.88;173675;28;1369;-82
2021/12/10 00:44:08;;;;;;;14.73;6.45;;;-0.20;99.90;;;-0.77;100.00;96623.00;174555;28;1720;-82
2021/12/10 00:44:15;;;;;;;13.56;6.47;;;-0.20;99.90;;;-0.77;100.00;96617.72;172983;28;1597;-81
2021/12/10 00:44:21;;;;;;;13.97;6.53;;;-0.20;99.90;;;-0.65;100.00;96638.59;173150;28;1533;-81
2021/12/10 00:44:27;;;;;;;13.53;6.30;;;-0.20;99.90;;;-0.63;100.00;96639.28;175400;28;1269;-82
2021/12/10 00:44:33;;;;;;;13.17;6.20;;;-0.20;99.90;;;-0.76;100.00;96622.03;173860;28;1227;-82
2021/12/10 00:44:39;;;;;;;13.82;6.12;;;-0.20;99.90;;;-0.70;100.00;96635.53;173141;28;1301;-81
2021/12/10 00:44:46;;;;;;;14.95;6.32;;;-0.20;99.90;;;-0.77;100.00;96615.91;172322;28;1411;-81
2021/12/10 00:44:55;;;;;;;15.33;6.27;;;-0.20;99.90;;;-0.70;100.00;96632.03;171930;28;860;-81
2021/12/10 00:45:08;;;;;;;15.30;6.24;;;-0.20;99.90;;;-0.67;100.00;96635.22;172993;28;1420;-82
2021/12/10 00:45:17;;;;;;;16.15;6.53;;;-0.20;99.90;;;-0.70;100.00;96627.59;172996;28;1420;-82
2021/12/10 00:45:26;;;;;;;16.10;6.77;;;-0.20;99.90;;;-0.65;100.00;96635.09;173805;28;1496;-81
2021/12/10 00:45:32;;;;;;;18.73;6.93;;;-0.20;99.90;;;-0.76;100.00;96616.75;173852;28;1440;-81
2021/12/10 00:45:39;;;;;;;17.64;6.66;;;-0.20;99.90;;;-0.62;100.00;96643.59;172528;28;1639;-81
2021/12/10 00:45:45;;;;;;;18.67;6.63;;;-0.20;99.90;;;-0.74;100.00;96623.56;172455;28;1337;-80
2021/12/10 00:45:51;;;;;;;19.37;6.53;;;-0.20;99.90;;;-0.67;100.00;96632.59;173207;28;1260;-81
2021/12/10 00:45:57;;;;;;;18.10;6.57;;;-0.20;99.90;;;-0.68;100.00;96630.09;173980;28;1152;-81
2021/12/10 00:46:04;;;;;;;17.50;6.63;;;-0.20;99.90;;;-0.69;100.00;96625.78;173943;28;1470;-81
2021/12/10 00:46:10;;;;;;;18.13;6.80;;;-0.20;99.90;;;-0.61;100.00;96636.50;172466;28;1271;-81
2021/12/10 00:46:16;;;;;;;17.13;7.00;;;-0.20;99.90;;;-0.67;100.00;96627.31;173896;28;1484;-80
2021/12/10 00:46:22;;;;;;;17.22;7.02;;;-0.20;99.90;;;-0.69;100.00;96629.28;172468;28;1453;-82
2021/12/10 00:46:28;;;;;;;16.48;6.95;;;-0.20;99.90;;;-0.73;100.00;96619.97;173413;28;1210;-82
2021/12/10 00:46:35;;;;;;;15.30;6.93;;;-0.20;99.90;;;-0.92;100.00;96586.41;173832;28;1440;-81
2021/12/10 00:46:42;;;;;;;14.20;6.67;;;-0.20;99.90;;;-0.70;100.00;96621.47;173829;28;1329;-81
2021/12/10 00:46:48;;;;;;;14.37;6.77;;;-0.20;99.90;;;-0.70;100.00;96621.47;173262;28;946;-82
2021/12/10 00:46:54;;;;;;;13.90;6.70;;;-0.20;99.90;;;-0.64;100.00;96628.84;172739;28;1481;-82